Huvudsida
METAR-TAF:

METAR-TAF

Flygplatser :

Kairos internationella flygplats

Kairo, Egypten

latitud: 30-08N, longitud: 031-24E, höjd: 64 m

Aktuellt väderrapport

Denna rapport gjordes för 1 timme och 0 minuter sedan, klockan 02:30 UTC
Vind 8 kt från nord
Temperatur 25°C
Fuktighet 79%
Tryck 1014 hPa
Sikt 10 km eller mer
Spridda moln på en höjd av 2500 ft

METAR: HECA 230230Z 35008KT 9999 SCT025 25/21 Q1014 NOSIG

Tid: 05:30 (03:30 UTC)

Väderprognos

Denna rapport gjordes för 4 timmar och 30 minuter sedan, klockan 23:00 UTC
Prognos gäller från 23 kl. 00 UTC till 24 kl. 06 UTC
Vind 10 kt från nord
Sikt 10 km eller mer
Spridda moln på en höjd av 2500 ft
Sannolikhet 30%
från 23 kl. 02 UTC till 23 kl. 07 UTC
Vind 3 kt varierande vindriktning
Sikt: 4000 m
fuktdis

TAF: HECA 222300Z 2300/2406 01010KT 9999 SCT025 PROB30 2302/2307 VRB03KT 4000 BR NSC

Aktuella väderrapporter och prognoser från 4000 flygplatser (METAR- och TAF-rapporter).

De tillgängliga stationerna syns som gula och röda prickar på kartan.

För musen över prickarna för att se namnen på stationerna.

Klicka sedan för att få väderrapporter och prognoser.

För att ändra kartan: Klicka på de gröna knapparna med ett svart kors på för att zooma in; den gröna knappen med ett streck på för att zooma ut; eller på de gröna pilarna för angränsande kartor.


METAR-TAF: